createdAt,value
2022-12-24T00:01:42.532Z,14.70
2022-12-24T00:06:45.911Z,13.90
2022-12-24T00:11:49.215Z,15.70
2022-12-24T00:16:52.738Z,42.70
2022-12-24T00:21:56.410Z,11.30
2022-12-24T00:27:00.024Z,10.40
2022-12-24T00:32:03.396Z,10.20
2022-12-24T00:37:07.474Z,10.80
2022-12-24T00:42:10.821Z,16.20
2022-12-24T00:47:14.277Z,23.40
2022-12-24T00:52:17.690Z,19.30
2022-12-24T00:57:21.078Z,18.20
2022-12-24T01:02:24.834Z,18.70
2022-12-24T01:07:28.277Z,21.20
2022-12-24T01:12:31.565Z,20.10
2022-12-24T01:17:39.800Z,23.20
2022-12-24T01:22:43.282Z,22.70
2022-12-24T01:27:46.918Z,19.00
2022-12-24T01:32:50.427Z,17.40
2022-12-24T01:37:53.778Z,18.30
2022-12-24T01:43:16.070Z,19.10
2022-12-24T01:48:26.449Z,14.90
2022-12-24T01:53:31.789Z,17.10
2022-12-24T01:58:36.916Z,20.50
2022-12-24T02:03:40.331Z,21.00
2022-12-24T02:08:45.110Z,24.20
2022-12-24T02:13:53.258Z,25.30
2022-12-24T02:19:22.914Z,24.40
2022-12-24T02:24:39.765Z,20.90
2022-12-24T02:30:01.497Z,21.10
2022-12-24T02:35:18.400Z,20.30
2022-12-24T02:40:46.917Z,18.70
2022-12-24T02:45:59.544Z,19.50
2022-12-24T02:51:06.852Z,22.10
2022-12-24T02:56:25.563Z,23.50
2022-12-24T03:02:04.824Z,21.90
2022-12-24T03:07:21.773Z,23.70
2022-12-24T03:12:32.759Z,18.70
2022-12-24T03:17:38.981Z,25.00
2022-12-24T03:22:42.246Z,19.20
2022-12-24T03:27:46.771Z,16.30
2022-12-24T03:32:50.295Z,14.80
2022-12-24T03:37:53.617Z,14.40
2022-12-24T03:42:56.937Z,12.60
2022-12-24T03:48:00.198Z,10.00
2022-12-24T03:53:03.581Z,15.30
2022-12-24T03:58:07.637Z,13.20
2022-12-24T04:03:10.940Z,14.90
2022-12-24T04:08:14.249Z,14.30
2022-12-24T04:13:17.490Z,13.10
2022-12-24T04:18:20.859Z,17.40
2022-12-24T04:23:25.556Z,22.00
2022-12-24T04:28:30.529Z,23.30
2022-12-24T04:33:35.535Z,24.00
2022-12-24T04:38:38.992Z,24.40
2022-12-24T04:43:42.722Z,24.20
2022-12-24T04:48:48.161Z,21.90
2022-12-24T04:53:52.283Z,26.30
2022-12-24T04:58:56.059Z,27.60
2022-12-24T05:03:59.801Z,25.80
2022-12-24T05:09:04.356Z,22.70
2022-12-24T05:14:07.685Z,18.00
2022-12-24T05:19:11.878Z,20.80
2022-12-24T05:24:33.698Z,22.50
2022-12-24T05:29:36.960Z,25.50
2022-12-24T05:34:40.415Z,24.70
2022-12-24T05:39:44.047Z,27.10
2022-12-24T05:44:47.270Z,21.50
2022-12-24T05:49:50.585Z,24.40
2022-12-24T05:54:54.449Z,25.40
2022-12-24T05:59:57.668Z,26.60
2022-12-24T06:05:01.130Z,26.70
2022-12-24T06:10:05.560Z,24.80
2022-12-24T06:15:09.590Z,34.90
2022-12-24T06:20:12.862Z,40.40
2022-12-24T06:25:16.352Z,34.50
2022-12-24T06:30:19.687Z,39.60
2022-12-24T06:35:23.375Z,32.00
2022-12-24T06:40:28.629Z,35.30
2022-12-24T06:45:32.474Z,25.00
2022-12-24T06:50:36.106Z,23.20
2022-12-24T06:55:39.573Z,22.90
2022-12-24T07:00:48.391Z,23.20
2022-12-24T07:05:51.817Z,30.70
2022-12-24T07:10:56.560Z,45.70
2022-12-24T07:16:05.379Z,37.00
2022-12-24T07:21:08.885Z,31.60
2022-12-24T07:26:12.390Z,25.10
2022-12-24T07:31:15.859Z,41.50
2022-12-24T07:36:21.418Z,38.20
2022-12-24T07:41:24.725Z,45.50
2022-12-24T07:46:28.214Z,38.00
2022-12-24T07:51:31.806Z,43.40
2022-12-24T07:56:35.877Z,53.00
2022-12-24T08:01:39.418Z,49.70
2022-12-24T08:06:42.996Z,71.60
2022-12-24T08:11:51.683Z,82.60
2022-12-24T08:16:56.183Z,69.80
2022-12-24T08:21:59.554Z,65.10
2022-12-24T08:27:02.900Z,71.20
2022-12-24T08:32:06.227Z,71.00
2022-12-24T08:37:09.871Z,73.20
2022-12-24T08:42:13.311Z,91.00
2022-12-24T08:47:16.618Z,66.40
2022-12-24T08:52:20.051Z,60.70
2022-12-24T08:57:24.053Z,62.30
2022-12-24T09:02:27.504Z,53.10
2022-12-24T09:07:31.613Z,56.70
2022-12-24T09:12:34.976Z,69.20
2022-12-24T09:17:39.157Z,75.70
2022-12-24T09:22:45.796Z,75.60
2022-12-24T09:27:49.193Z,79.70
2022-12-24T09:32:54.360Z,80.10
2022-12-24T09:38:05.229Z,79.00
2022-12-24T09:43:24.291Z,79.10
2022-12-24T09:48:34.684Z,75.40
2022-12-24T09:53:48.290Z,72.60
2022-12-24T09:59:01.447Z,75.40
2022-12-24T10:04:19.387Z,80.00
2022-12-24T10:09:42.596Z,75.40
2022-12-24T10:15:07.860Z,65.40
2022-12-24T10:20:30.279Z,65.00
2022-12-24T10:26:12.701Z,54.70
2022-12-24T10:31:16.687Z,49.90
2022-12-24T10:36:30.587Z,37.70
2022-12-24T10:41:37.341Z,26.80
2022-12-24T10:46:41.250Z,18.80
2022-12-24T10:51:55.846Z,12.80
2022-12-24T10:57:02.784Z,14.50
2022-12-24T11:02:29.366Z,15.90
2022-12-24T11:07:33.966Z,13.60
2022-12-24T11:12:41.373Z,12.20
2022-12-24T11:17:57.317Z,14.00
2022-12-24T11:23:03.328Z,13.20
2022-12-24T11:28:23.455Z,10.60
2022-12-24T11:33:27.168Z,9.10
2022-12-24T11:38:34.073Z,13.60
2022-12-24T11:43:48.015Z,9.50
2022-12-24T11:49:11.924Z,15.50
2022-12-24T11:54:30.162Z,12.90
2022-12-24T11:59:45.123Z,17.60
2022-12-24T12:04:54.091Z,11.00
2022-12-24T12:10:03.783Z,18.90
2022-12-24T12:15:16.034Z,25.70
2022-12-24T12:20:24.993Z,24.10
2022-12-24T12:25:51.806Z,17.60
2022-12-24T12:31:03.112Z,18.60
2022-12-24T12:36:10.651Z,23.10
2022-12-24T12:41:26.189Z,19.70
2022-12-24T12:46:38.095Z,19.40
2022-12-24T12:52:09.661Z,20.80
2022-12-24T12:57:17.836Z,20.20
2022-12-24T13:02:42.681Z,20.20
2022-12-24T13:07:52.440Z,16.90
2022-12-24T13:13:04.675Z,19.90
2022-12-24T13:18:39.134Z,15.60
2022-12-24T13:23:42.554Z,25.30
2022-12-24T13:28:46.048Z,22.10
2022-12-24T13:33:52.030Z,14.70
2022-12-24T13:38:59.928Z,17.00
2022-12-24T13:44:18.765Z,14.50
2022-12-24T13:49:29.900Z,26.90
2022-12-24T13:54:33.980Z,26.50
2022-12-24T13:59:39.780Z,29.30
2022-12-24T14:04:43.252Z,24.90
2022-12-24T14:09:51.651Z,30.20
2022-12-24T14:14:55.305Z,22.40
2022-12-24T14:20:01.444Z,16.00
2022-12-24T14:25:13.968Z,27.00
2022-12-24T14:30:28.949Z,23.30
2022-12-24T14:35:40.438Z,22.20
2022-12-24T14:41:22.757Z,22.60
2022-12-24T14:46:36.256Z,20.60
2022-12-24T14:51:54.468Z,16.60
2022-12-24T14:57:13.024Z,19.10
2022-12-24T15:02:50.314Z,16.60
2022-12-24T15:07:58.743Z,18.30
2022-12-24T15:13:10.401Z,20.80
2022-12-24T15:18:21.690Z,24.00
2022-12-24T15:23:46.713Z,24.00
2022-12-24T15:28:52.234Z,20.60
2022-12-24T15:34:02.256Z,20.00
2022-12-24T15:39:17.702Z,25.30
2022-12-24T15:44:21.173Z,30.80
2022-12-24T15:49:28.443Z,20.90
2022-12-24T15:54:32.466Z,23.00
2022-12-24T15:59:36.746Z,24.10
2022-12-24T16:04:40.071Z,27.20
2022-12-24T16:09:45.981Z,25.00
2022-12-24T16:15:01.405Z,16.10
2022-12-24T16:20:16.524Z,12.40
2022-12-24T16:25:27.882Z,14.80
2022-12-24T16:30:31.370Z,14.40
2022-12-24T16:35:36.741Z,16.60
2022-12-24T16:40:44.067Z,16.90
2022-12-24T16:45:48.905Z,17.50
2022-12-24T16:50:54.982Z,10.50
2022-12-24T16:55:58.359Z,14.10
2022-12-24T17:01:07.261Z,17.50
2022-12-24T17:06:11.872Z,14.70
2022-12-24T17:11:15.279Z,11.10
2022-12-24T17:16:18.829Z,10.20
2022-12-24T17:21:22.668Z,13.60
2022-12-24T17:26:26.667Z,7.40
2022-12-24T17:31:30.064Z,13.20
2022-12-24T17:36:33.960Z,9.70
2022-12-24T17:41:37.256Z,12.90
2022-12-24T17:46:40.826Z,13.40
2022-12-24T17:51:46.011Z,11.00
2022-12-24T17:56:51.099Z,12.80
2022-12-24T18:01:54.439Z,14.90
2022-12-24T18:07:02.503Z,10.20
2022-12-24T18:12:06.679Z,18.10
2022-12-24T18:17:10.485Z,24.70
2022-12-24T18:22:13.879Z,12.80
2022-12-24T18:27:17.232Z,9.30
2022-12-24T18:32:20.654Z,8.20
2022-12-24T18:37:23.959Z,14.30
2022-12-24T18:42:27.747Z,16.50
2022-12-24T18:47:31.039Z,14.30
2022-12-24T18:52:34.479Z,11.50
2022-12-24T18:57:38.023Z,11.70
2022-12-24T19:02:42.207Z,11.00
2022-12-24T19:07:46.604Z,8.60
2022-12-24T19:12:50.729Z,10.20
2022-12-24T19:17:55.580Z,10.80
2022-12-24T19:22:58.896Z,12.30
2022-12-24T19:28:08.779Z,10.80
2022-12-24T19:33:12.246Z,10.50
2022-12-24T19:38:15.573Z,10.90
2022-12-24T19:43:18.813Z,7.20
2022-12-24T19:48:22.053Z,11.70
2022-12-24T19:53:25.393Z,9.40
2022-12-24T19:58:29.277Z,9.10
2022-12-24T20:03:33.369Z,9.80
2022-12-24T20:08:38.054Z,11.60
2022-12-24T20:13:42.144Z,9.70
2022-12-24T20:18:52.107Z,8.90
2022-12-24T20:23:56.433Z,11.50
2022-12-24T20:29:09.283Z,11.50
2022-12-24T20:34:12.743Z,12.70
2022-12-24T20:39:17.327Z,10.20
2022-12-24T20:44:20.664Z,9.80
2022-12-24T20:49:24.091Z,9.90
2022-12-24T20:54:27.486Z,11.70
2022-12-24T20:59:30.808Z,10.10
2022-12-24T21:04:34.173Z,14.00
2022-12-24T21:09:37.419Z,13.20
2022-12-24T21:14:40.881Z,10.10
2022-12-24T21:19:44.539Z,10.40
2022-12-24T21:24:48.021Z,10.60
2022-12-24T21:29:51.463Z,10.00
2022-12-24T21:34:55.910Z,11.10
2022-12-24T21:39:59.806Z,12.60
2022-12-24T21:45:05.162Z,10.30
2022-12-24T21:50:32.079Z,8.10
2022-12-24T21:55:36.132Z,11.50
2022-12-24T22:00:39.875Z,10.30
2022-12-24T22:05:43.431Z,11.50
2022-12-24T22:11:05.542Z,20.60
2022-12-24T22:16:12.843Z,13.50
2022-12-24T22:21:16.302Z,12.20
2022-12-24T22:26:19.826Z,11.50
2022-12-24T22:31:24.519Z,12.90
2022-12-24T22:36:28.245Z,12.00
2022-12-24T22:41:31.557Z,9.70
2022-12-24T22:46:34.944Z,19.50
2022-12-24T22:51:38.314Z,16.40
2022-12-24T22:56:42.107Z,14.40
2022-12-24T23:01:47.659Z,16.00
2022-12-24T23:06:51.160Z,20.30
2022-12-24T23:11:54.394Z,15.60
2022-12-24T23:16:57.639Z,13.10
2022-12-24T23:22:02.398Z,11.50
2022-12-24T23:27:05.716Z,11.50
2022-12-24T23:32:09.016Z,12.20
2022-12-24T23:37:12.280Z,11.30
2022-12-24T23:42:15.555Z,12.30
2022-12-24T23:47:20.541Z,13.30
2022-12-24T23:52:24.115Z,12.10
2022-12-24T23:57:27.430Z,13.50
